Wilson Commons Park, Washoe Valley, Nevada Weather observations

Data are for 10 minute period ending at time listed.
 Day   Time   Solar   Ave.   Ave.  Ave.  Vector  Max.   Baro.   Total    
  of    of     Rad.   Air    Rel.  Wind   Wind   Wind  Press.  Precip.   
Year   Day            Temp.  Hum.  Speed  Dir.   Gust                    
2026   (PST)  Kw/m2    F      %     mph   deg.    mph    mb.     in.     
-------------------------------------------------------------------------
 128    0:20   0.00   45.8    52    2.0    34     5.3   99999.0    0.00 
 128    0:30   0.00   44.7    54    1.3    34     2.8   99999.0    0.00 
 128    0:40   0.00   46.2    54    2.8    34     3.8   99999.0    0.00 
 128    0:50   0.00   44.8    62    2.4    34     3.8   99999.0    0.00 
 128    1:00   0.00   43.2    63    2.1    34     3.5   99999.0    0.00 
 128    1:10   0.00   41.7    68    1.3    34     3.1   99999.0    0.00 
 128    1:20   0.00   42.8    65    3.1    34     4.2   99999.0    0.00 
 128    1:30   0.00   42.4    68    0.3    34     2.1   99999.0    0.00 
 128    1:40   0.00   41.5    68    0.9    34     2.8   99999.0    0.00 
 128    1:50   0.00   40.7    71    2.4    34     5.3   99999.0    0.00 
 128    2:00   0.00   41.4    62    2.8    34     4.9   99999.0    0.00 
 128    2:10   0.00   43.2    54    2.8    34     4.6   99999.0    0.00 
 128    2:20   0.00   43.3    59    2.3    34     4.2   99999.0    0.00 
 128    2:30   0.00   43.3    62    3.1    34     4.9   99999.0    0.00 
 128    2:40   0.00   43.4    60    2.8    34     3.8   99999.0    0.00 
 128    2:50   0.00   43.2    60    2.8    34     5.3   99999.0    0.00 
 128    3:00   0.00   44.9    48    3.7    33     5.6   99999.0    0.00 
 128    3:10   0.00   44.5    48    2.7    33     4.9   99999.0    0.00 
 128    3:20   0.00   43.4    52    4.4    33     6.3   99999.0    0.00 
 128    3:30   0.00   42.9    52    3.7    34     4.9   99999.0    0.00 
 128    3:40   0.00   43.0    56    2.0    34     3.5   99999.0    0.00 
 128    3:50   0.00   42.7    56    2.2    34     4.6   99999.0    0.00 
 128    4:00   0.00   42.5    61    1.3    34     2.8   99999.0    0.00 
 128    4:10   0.00   42.6    59    1.9    34     4.2   99999.0    0.00 
 128    4:20   0.00   40.7    72    0.6    34     3.1   99999.0    0.00 
 128    4:30   0.00   40.5    65    1.6    34     3.8   99999.0    0.00 
 128    4:40   0.00   40.3    62    1.1    34     3.5   99999.0    0.00 
 128    4:50   0.00   40.0    62    2.3    34     6.7   99999.0    0.00 
 128    5:00   0.00   39.4    64    1.6    34     2.8   99999.0    0.00 
 128    5:10   0.01   39.0    66    2.4    34     4.6   99999.0    0.00 
 128    5:20   0.02   38.5    70    1.6    34     3.8   99999.0    0.00 
 128    5:30   0.06   39.8    64    1.2    32     4.2   99999.0    0.00 
 128    5:40   0.10   42.1    59    1.3    31     3.5   99999.0    0.00 
 128    5:50   0.14   43.3    60    1.7    32     4.9   99999.0    0.00 
 128    6:00   0.17   43.8    64    1.3    32     3.5   99999.0    0.00 
 128    6:10   0.20   44.4    60    1.6    32     3.5   99999.0    0.00 
 128    6:20   0.23   47.5    58    0.5    32     2.1   99999.0    0.00 
 128    6:30   0.28   49.8    49    1.4    32     3.1   99999.0    0.00 
 128    6:40   0.31   52.5    46    0.6    32     2.1   99999.0    0.00 
 128    6:50   0.35   54.4    46    0.9    32     2.1   99999.0    0.00 
 128    7:00   0.39   55.9    46    0.6    32     2.1   99999.0    0.00 
 128    7:10   0.42   57.5    44    0.9    32     2.4   99999.0    0.00 
 128    7:20   0.46   57.9    44    1.6    32     3.1   99999.0    0.00 
 128    7:30   0.49   58.0    44    1.9    32     3.5   99999.0    0.00 
 128    7:40   0.53   58.7    43    2.2    32     3.8   99999.0    0.00 
 128    7:50   0.57   58.8    39    2.4    32     3.8   99999.0    0.00 
 128    8:00   0.60   59.6    35    2.3    32     3.8   99999.0    0.00 
 128    8:10   0.63   60.9    36    2.3    32     4.2   99999.0    0.00 
 128    8:20   0.67   60.9    36    3.2    33     5.6   99999.0    0.00 
 128    8:30   0.70   61.7    34    2.7    33     6.0   99999.0    0.00 
 128    8:40   0.73   62.2    35    3.4    32     4.9   99999.0    0.00 
 128    8:50   0.75   62.9    33    3.4    32     4.9   99999.0    0.00 
 128    9:00   0.79   63.6    32    3.3    32     5.3   99999.0    0.00 
 128    9:10   0.82   63.6    29    3.9    33     6.0   99999.0    0.00 
 128    9:20   0.85   64.0    28    4.3    35     7.1   99999.0    0.00 
 128    9:30   0.88   64.6    26    3.5    35     7.1   99999.0    0.00 
 128    9:40   0.90   65.0    28    4.4    36     6.0   99999.0    0.00 
 128    9:50   0.92   65.3    28    5.0    35     6.3   99999.0    0.00 
 128   10:00   0.94   65.6    28    4.8    36     6.7   99999.0    0.00 
 128   10:10   0.96   66.8    29    4.6    35     7.1   99999.0    0.00 
 128   10:20   0.98   67.3    25    4.1    34     6.7   99999.0    0.00 
 128   10:30   1.00   67.8    27    4.3    34     6.7   99999.0    0.00 
 128   10:40   1.04   68.4    27    4.3    35     6.7   99999.0    0.00 
 128   10:50   1.06   69.4    24    5.0    34    12.1   99999.0    0.00 
 128   11:00   1.12   71.3    23    8.1    33    14.2   99999.0    0.00 
 128   11:10   0.91   70.9    21   10.6    33    19.9   99999.0    0.00 
 128   11:20   1.05   69.9    20   13.0    32    18.9   99999.0    0.00 
 128   11:30   1.08   70.0    20   13.6    32    19.9   99999.0    0.00 
 128   11:40   1.11   70.6    21   11.3    32    17.8   99999.0    0.00 
 128   11:50   1.12   71.1    19   11.9    32    17.4   99999.0    0.00 
 128   12:00   1.09   71.0    18   13.2    32    19.6   99999.0    0.00 
 128   12:10   1.07   71.1    19   12.3    32    18.5   99999.0    0.00 
 128   12:20   1.07   71.4    19   13.1    32    20.6   99999.0    0.00 
 128   12:30   1.06   71.5    18   13.0    32    22.1   99999.0    0.00 
 128   12:40   1.06   71.7    18   12.6    32    18.9   99999.0    0.00 
 128   12:50   1.05   71.9    18   13.5    32    20.3   99999.0    0.00 
 128   13:00   1.05   72.3    19   11.3    32    17.8   99999.0    0.00 
 128   13:10   1.04   72.7    17   13.3    31    19.6   99999.0    0.00 
 128   13:20   1.02   73.0    18   12.0    32    18.9   99999.0    0.00 
 128   13:30   1.01   73.1    17   13.0    32    18.9   99999.0    0.00 
 128   13:40   1.00   73.1    16   14.9    32    22.1   99999.0    0.00 
 128   13:50   0.98   73.3    17   13.7    31    20.3   99999.0    0.00 
 128   14:00   0.96   73.4    17   13.5    31    22.1   99999.0    0.00 
 128   14:10   0.94   73.8    18   12.3    32    19.9   99999.0    0.00 
 128   14:20   0.92   73.6    17   14.8    32    21.0   99999.0    0.00 
 128   14:30   0.90   73.5    17   13.5    32    20.3   99999.0    0.00 
 128   14:40   0.87   73.6    18   13.2    33    20.3   99999.0    0.00 
 128   14:50   0.84   73.8    19   11.3    33    17.1   99999.0    0.00 
 128   15:00   0.81   74.0    19   11.6    33    19.2   99999.0    0.00 
 128   15:10   0.78   74.1    19   10.3    33    17.4   99999.0    0.00 
 128   15:20   0.76   74.2    19   11.3    33    17.4   99999.0    0.00 
 128   15:30   0.72   74.0    19   12.2    33    19.2   99999.0    0.00 
 128   15:40   0.69   74.0    20   10.3    33    15.6   99999.0    0.00 
 128   15:50   0.66   74.1    20    9.1    34    14.6   99999.0    0.00 
 128   16:00   0.62   74.2    20    9.8    33    16.0   99999.0    0.00 
 128   16:10   0.59   74.1    20   10.0    33    19.6   99999.0    0.00 
 128   16:20   0.55   73.6    20   12.8    33    22.1   99999.0    0.00 
 128   16:30   0.52   73.3    20   12.5    32    19.6   99999.0    0.00 
 128   16:40   0.48   73.2    20   10.5    33    16.0   99999.0    0.00 
 128   16:50   0.44   73.1    21   11.2    33    16.4   99999.0    0.00 
 128   17:00   0.41   72.7    22   10.1    34    16.7   99999.0    0.00 
 128   17:10   0.37   72.5    22   10.7    33    15.6   99999.0    0.00 
 128   17:20   0.33   72.1    23   10.5    33    16.0   99999.0    0.00 
 128   17:30   0.29   71.7    24   11.8    33    20.3   99999.0    0.00 
 128   17:40   0.26   71.2    25   10.8    33    16.0   99999.0    0.00 
 128   17:50   0.22   70.6    26   10.3    33    16.7   99999.0    0.00 
 128   18:00   0.07   69.3    27    8.9    34    16.4   99999.0    0.00 
 128   18:10   0.02   67.6    28   11.4    34    17.1   99999.0    0.00 
 128   18:20   0.02   67.0    29    9.9    34    17.4   99999.0    0.00 
 128   18:30   0.02   66.6    29   10.0    33    15.3   99999.0    0.00 
 128   18:40   0.01   66.6    30   11.1    33    16.0   99999.0    0.00 
 128   18:50   0.01   66.3    30   10.6    33    16.0   99999.0    0.00 
 128   19:00   0.01   65.8    32   10.9    33    17.8   99999.0    0.00 
 128   19:10   0.00   65.6    32   11.7    33    17.1   99999.0    0.00 
 128   19:20   0.00   65.1    33    8.2    34    13.9   99999.0    0.00 
 128   19:30   0.00   64.2    33    3.9    32     7.1   99999.0    0.00 
 128   19:40   0.00   63.0    34    1.6    33     4.6   99999.0    0.00 
 128   19:50   0.00   61.7    35    0.6    33     2.4   99999.0    0.00 
 128   20:00   0.00   60.4    39    2.4    33     4.9   99999.0    0.00 
 128   20:10   0.00   57.0    46    2.7    33     4.2   99999.0    0.00 
 128   20:20   0.00   55.5    52    0.8    33     2.8   99999.0    0.00 
 128   20:30   0.00   53.9    50    1.3    33     5.6   99999.0    0.00 
 128   20:40   0.00   54.4    50    2.1    33     3.5   99999.0    0.00 
 128   20:50   0.00   53.6    52    1.0    33     3.1   99999.0    0.00 
 128   21:00   0.00   52.8    53    2.9    33     4.2   99999.0    0.00 
 128   21:10   0.00   52.5    53    1.9    33     3.5   99999.0    0.00 
 128   21:20   0.00   53.2    52    2.8    33     4.2   99999.0    0.00 
 128   21:30   0.00   54.1    48    2.6    33     6.3   99999.0    0.00 
 128   21:40   0.00   52.4    56    0.6    33     2.4   99999.0    0.00 
 128   21:50   0.00   51.9    56    1.7    33     4.6   99999.0    0.00 
 128   22:00   0.00   50.3    61    1.3    33     3.5   99999.0    0.00 
 128   22:10   0.00   48.6    68    1.0    33     2.8   99999.0    0.00 
 128   22:20   0.00   48.6    66    3.3    33     5.3   99999.0    0.00 
 128   22:30   0.00   47.2    66    4.3    33     6.0   99999.0    0.00 
 128   22:40   0.00   49.3    62    3.1    34     4.6   99999.0    0.00 
 128   22:50   0.00   47.5    66    4.3    34     5.6   99999.0    0.00 
 128   23:00   0.00   47.6    65    3.4    32     6.0   99999.0    0.00 
 128   23:10   0.00   49.1    63    3.0    32     5.3   99999.0    0.00 
 128   23:20   0.00   52.3    55    3.3    32     5.6   99999.0    0.00 
 128   23:30   0.00   53.3    53    2.7    32     5.6   99999.0    0.00 
 128   23:40   0.00   51.3    58    2.0    32     3.5   99999.0    0.00 
 128   23:50   0.00   49.6    61    3.6    32     6.0   99999.0    0.00 
 129    0:00   0.00   46.8    70    3.1    32     4.9   99999.0    0.00 
 129    0:10   0.00   47.7    68    1.1    32     3.8   99999.0    0.00 

Return to Wilson Commons Park graphs page.


Western Regional Climate Center,wrcc@dri.edu